createdAt,value
2023-04-30T00:01:08.890Z,8.20
2023-04-30T00:03:39.587Z,7.90
2023-04-30T00:06:08.421Z,7.50
2023-04-30T00:08:37.162Z,7.60
2023-04-30T00:11:05.751Z,7.60
2023-04-30T00:13:34.457Z,6.90
2023-04-30T00:16:02.940Z,7.00
2023-04-30T00:18:31.494Z,7.30
2023-04-30T00:20:59.846Z,7.40
2023-04-30T00:23:29.274Z,8.00
2023-04-30T00:25:58.065Z,8.10
2023-04-30T00:28:27.158Z,7.80
2023-04-30T00:30:56.246Z,8.20
2023-04-30T00:33:25.149Z,7.80
2023-04-30T00:35:53.933Z,8.20
2023-04-30T00:38:22.303Z,6.80
2023-04-30T00:40:51.094Z,7.60
2023-04-30T00:43:21.679Z,8.30
2023-04-30T00:45:49.858Z,8.50
2023-04-30T00:48:19.150Z,7.20
2023-04-30T00:50:47.411Z,7.90
2023-04-30T00:53:17.186Z,8.80
2023-04-30T00:55:47.009Z,7.90
2023-04-30T00:58:16.387Z,7.60
2023-04-30T01:00:47.291Z,9.00
2023-04-30T01:03:17.976Z,9.70
2023-04-30T01:05:47.858Z,8.40
2023-04-30T01:08:16.974Z,9.10
2023-04-30T01:10:56.936Z,8.80
2023-04-30T01:13:47.405Z,6.30
2023-04-30T01:16:27.512Z,7.70
2023-04-30T01:19:06.808Z,7.60
2023-04-30T01:21:43.740Z,7.20
2023-04-30T01:24:24.528Z,6.80
2023-04-30T01:27:21.062Z,7.20
2023-04-30T01:29:51.358Z,7.50
2023-04-30T01:32:19.719Z,6.40
2023-04-30T01:34:49.328Z,7.00
2023-04-30T01:37:35.944Z,9.60
2023-04-30T01:41:05.709Z,7.30
2023-04-30T01:43:43.684Z,10.20
2023-04-30T01:46:31.244Z,7.30
2023-04-30T01:49:38.850Z,7.40
2023-04-30T01:52:43.158Z,7.10
2023-04-30T01:55:18.321Z,7.80
2023-04-30T01:58:01.297Z,7.40
2023-04-30T02:00:32.862Z,7.40
2023-04-30T02:03:02.937Z,7.50
2023-04-30T02:05:32.706Z,7.10
2023-04-30T02:08:02.291Z,7.10
2023-04-30T02:10:33.220Z,7.50
2023-04-30T02:13:02.767Z,7.10
2023-04-30T02:15:33.862Z,6.80
2023-04-30T02:18:02.937Z,6.00
2023-04-30T02:20:32.231Z,8.30
2023-04-30T02:23:01.063Z,8.10
2023-04-30T02:25:33.209Z,7.00
2023-04-30T02:28:03.241Z,6.70
2023-04-30T02:30:34.681Z,6.40
2023-04-30T02:33:05.866Z,7.40
2023-04-30T02:35:34.525Z,6.20
2023-04-30T02:38:03.685Z,6.90
2023-04-30T02:40:33.616Z,7.00
2023-04-30T02:43:02.947Z,7.70
2023-04-30T02:45:34.423Z,6.60
2023-04-30T02:48:03.006Z,6.60
2023-04-30T02:50:32.980Z,6.80
2023-04-30T02:53:02.463Z,6.00
2023-04-30T02:55:33.250Z,5.60
2023-04-30T02:58:02.400Z,7.40
2023-04-30T03:00:31.719Z,6.80
2023-04-30T03:03:01.038Z,6.70
2023-04-30T03:05:32.659Z,6.60
2023-04-30T03:08:13.732Z,6.40
2023-04-30T03:10:42.787Z,6.60
2023-04-30T03:13:11.832Z,8.20
2023-04-30T03:15:40.618Z,6.30
2023-04-30T03:18:11.898Z,7.40
2023-04-30T03:20:44.094Z,6.60
2023-04-30T03:23:14.730Z,7.70
2023-04-30T03:25:43.151Z,6.20
2023-04-30T03:28:12.439Z,8.30
2023-04-30T03:30:41.980Z,6.40
2023-04-30T03:33:10.291Z,6.90
2023-04-30T03:35:39.953Z,7.00
2023-04-30T03:38:08.618Z,7.20
2023-04-30T03:40:39.859Z,7.80
2023-04-30T03:43:08.962Z,6.50
2023-04-30T03:45:40.411Z,7.00
2023-04-30T03:48:11.450Z,6.50
2023-04-30T03:50:41.979Z,6.70
2023-04-30T03:53:11.177Z,6.10
2023-04-30T03:55:39.811Z,6.00
2023-04-30T03:58:09.575Z,6.80
2023-04-30T04:00:42.549Z,6.40
2023-04-30T04:03:12.316Z,6.60
2023-04-30T04:05:43.732Z,6.60
2023-04-30T04:08:14.236Z,7.00
2023-04-30T04:10:44.563Z,5.90
2023-04-30T04:13:14.472Z,6.60
2023-04-30T04:15:42.909Z,6.40
2023-04-30T04:18:13.006Z,7.20
2023-04-30T04:20:41.762Z,6.30
2023-04-30T04:23:11.676Z,6.70
2023-04-30T04:25:42.400Z,6.00
2023-04-30T04:28:12.035Z,5.70
2023-04-30T04:30:42.623Z,7.40
2023-04-30T04:33:12.033Z,6.00
2023-04-30T04:35:41.175Z,5.70
2023-04-30T04:38:12.163Z,5.70
2023-04-30T04:40:42.465Z,5.50
2023-04-30T04:43:11.078Z,5.80
2023-04-30T04:45:41.022Z,6.10
2023-04-30T04:48:11.628Z,6.10
2023-04-30T04:50:41.732Z,5.80
2023-04-30T04:53:10.218Z,6.20
2023-04-30T04:55:39.950Z,6.30
2023-04-30T04:58:08.472Z,6.40
2023-04-30T05:00:36.624Z,5.50
2023-04-30T05:03:06.915Z,6.40
2023-04-30T05:05:36.052Z,6.00
2023-04-30T05:08:05.809Z,6.40
2023-04-30T05:10:35.283Z,6.00
2023-04-30T05:13:03.783Z,5.90
2023-04-30T05:15:32.648Z,5.90
2023-04-30T05:18:00.983Z,5.30
2023-04-30T05:20:30.169Z,6.60
2023-04-30T05:22:58.872Z,5.60
2023-04-30T05:25:28.236Z,6.00
2023-04-30T05:27:57.235Z,4.90
2023-04-30T05:30:26.776Z,4.90
2023-04-30T05:33:02.866Z,5.70
2023-04-30T05:35:31.901Z,5.80
2023-04-30T05:38:01.266Z,6.30
2023-04-30T05:40:31.772Z,5.30
2023-04-30T05:43:01.220Z,5.30
2023-04-30T05:45:30.191Z,5.70
2023-04-30T05:47:59.060Z,5.90
2023-04-30T05:50:27.811Z,5.80
2023-04-30T05:52:56.159Z,6.40
2023-04-30T05:55:25.148Z,4.70
2023-04-30T05:57:54.129Z,5.80
2023-04-30T06:00:22.450Z,5.60
2023-04-30T06:02:50.939Z,6.00
2023-04-30T06:05:19.880Z,5.90
2023-04-30T06:07:50.116Z,5.40
2023-04-30T06:10:20.023Z,5.20
2023-04-30T06:12:48.826Z,4.70
2023-04-30T06:15:18.627Z,5.10
2023-04-30T06:17:48.660Z,6.50
2023-04-30T06:20:19.295Z,5.60
2023-04-30T06:22:48.072Z,5.60
2023-04-30T06:25:16.827Z,6.60
2023-04-30T06:27:45.176Z,4.30
2023-04-30T06:30:16.435Z,4.50
2023-04-30T06:32:48.463Z,5.20
2023-04-30T06:35:18.674Z,4.30
2023-04-30T06:37:49.564Z,4.50
2023-04-30T06:40:25.470Z,5.70
2023-04-30T06:42:55.098Z,4.00
2023-04-30T06:45:24.638Z,4.80
2023-04-30T06:47:53.586Z,4.20
2023-04-30T06:50:22.371Z,3.60
2023-04-30T06:52:51.056Z,7.10
2023-04-30T06:55:20.253Z,4.00
2023-04-30T06:57:49.034Z,4.20
2023-04-30T07:00:17.522Z,4.20
2023-04-30T07:02:49.483Z,4.50
2023-04-30T07:05:19.165Z,5.10
2023-04-30T07:07:47.248Z,4.60
2023-04-30T07:10:15.633Z,4.40
2023-04-30T07:12:43.694Z,5.40
2023-04-30T07:15:12.103Z,3.50
2023-04-30T07:17:42.001Z,5.70
2023-04-30T07:20:11.152Z,3.80
2023-04-30T07:22:39.375Z,5.00
2023-04-30T07:25:08.973Z,3.60
2023-04-30T07:27:37.499Z,4.80
2023-04-30T07:30:07.133Z,3.60
2023-04-30T07:32:36.364Z,4.50
2023-04-30T07:35:05.568Z,5.30
2023-04-30T07:37:35.305Z,4.10
2023-04-30T07:40:04.789Z,4.40
2023-04-30T07:42:32.846Z,3.60
2023-04-30T07:45:04.039Z,5.20
2023-04-30T07:47:33.430Z,6.40
2023-04-30T07:50:02.357Z,9.30
2023-04-30T07:52:31.178Z,12.50
2023-04-30T07:54:59.595Z,13.10
2023-04-30T07:57:29.083Z,10.70
2023-04-30T07:59:58.978Z,13.50
2023-04-30T08:02:29.493Z,13.70
2023-04-30T08:05:02.130Z,11.90
2023-04-30T08:07:32.158Z,12.20
2023-04-30T08:10:00.772Z,12.60
2023-04-30T08:12:30.609Z,10.30
2023-04-30T08:15:05.240Z,12.40
2023-04-30T08:17:34.927Z,10.70
2023-04-30T08:20:06.435Z,13.00
2023-04-30T08:22:34.713Z,11.00
2023-04-30T08:25:06.546Z,9.30
2023-04-30T08:27:36.343Z,10.00
2023-04-30T08:30:07.901Z,9.30
2023-04-30T08:32:37.991Z,12.30
2023-04-30T08:35:10.445Z,8.60
2023-04-30T08:37:38.978Z,7.30
2023-04-30T08:40:10.494Z,7.40
2023-04-30T08:43:02.788Z,9.90
2023-04-30T08:45:37.456Z,9.70
2023-04-30T08:48:11.708Z,8.50
2023-04-30T08:50:40.415Z,9.80
2023-04-30T08:53:16.152Z,8.80
2023-04-30T08:55:45.283Z,8.60
2023-04-30T08:58:15.152Z,10.20
2023-04-30T09:00:43.740Z,8.80
2023-04-30T09:03:13.396Z,7.60
2023-04-30T09:05:42.562Z,11.50
2023-04-30T09:08:19.905Z,9.20
2023-04-30T09:10:49.909Z,9.70
2023-04-30T09:13:19.667Z,9.50
2023-04-30T09:15:55.222Z,7.40
2023-04-30T09:18:26.824Z,7.30
2023-04-30T09:21:07.651Z,6.70
2023-04-30T09:23:54.570Z,7.30
2023-04-30T09:26:34.177Z,8.20
2023-04-30T09:29:08.842Z,8.40
2023-04-30T09:31:43.050Z,9.90
2023-04-30T09:34:14.072Z,8.00
2023-04-30T09:36:59.055Z,8.60
2023-04-30T09:39:31.750Z,6.70
2023-04-30T09:42:12.489Z,8.50
2023-04-30T09:44:43.993Z,6.40
2023-04-30T09:47:21.982Z,6.80
2023-04-30T09:49:53.110Z,6.50
2023-04-30T09:52:24.023Z,6.10
2023-04-30T09:54:53.361Z,5.70
2023-04-30T09:57:26.086Z,6.40
2023-04-30T09:59:58.635Z,8.70
2023-04-30T10:02:29.481Z,6.60
2023-04-30T10:05:01.744Z,9.00
2023-04-30T10:07:41.098Z,4.80
2023-04-30T10:10:13.035Z,6.90
2023-04-30T10:12:52.815Z,5.50
2023-04-30T10:15:31.474Z,6.90
2023-04-30T10:18:12.398Z,7.40
2023-04-30T10:20:43.485Z,7.70
2023-04-30T10:23:15.165Z,4.10
2023-04-30T10:25:46.535Z,6.50
2023-04-30T10:28:17.849Z,4.60
2023-04-30T10:30:50.232Z,4.70
2023-04-30T10:33:35.741Z,4.90
2023-04-30T10:38:41.793Z,4.90
2023-04-30T10:41:11.674Z,6.10
2023-04-30T10:43:41.727Z,3.60
2023-04-30T10:46:12.221Z,4.10
2023-04-30T10:48:42.684Z,6.90
2023-04-30T10:51:13.419Z,3.80
2023-04-30T10:53:44.754Z,4.50
2023-04-30T10:56:15.087Z,5.70
2023-04-30T10:58:46.987Z,5.00
2023-04-30T11:01:21.673Z,3.00
2023-04-30T11:04:08.964Z,3.90
2023-04-30T11:06:57.161Z,5.70
2023-04-30T11:09:44.486Z,3.60
2023-04-30T11:12:28.945Z,4.00
2023-04-30T11:15:14.219Z,4.60
2023-04-30T11:17:46.479Z,3.00
2023-04-30T11:20:24.388Z,3.30
2023-04-30T11:23:22.133Z,3.80
2023-04-30T11:26:03.086Z,3.50
2023-04-30T11:28:37.087Z,3.90
2023-04-30T11:31:08.514Z,3.20
2023-04-30T11:33:42.005Z,2.90
2023-04-30T11:36:14.787Z,4.10
2023-04-30T11:38:46.544Z,3.60
2023-04-30T11:41:16.834Z,3.70
2023-04-30T11:43:46.945Z,4.10
2023-04-30T11:46:19.384Z,4.00
2023-04-30T11:48:49.534Z,3.50
2023-04-30T11:51:27.754Z,5.00
2023-04-30T11:53:57.834Z,3.10
2023-04-30T11:56:28.146Z,3.90
2023-04-30T11:58:57.672Z,3.70
2023-04-30T12:01:29.417Z,3.10
2023-04-30T12:03:59.739Z,3.90
2023-04-30T12:06:31.685Z,3.60
2023-04-30T12:09:09.575Z,2.00
2023-04-30T12:11:40.909Z,3.50
2023-04-30T12:14:13.684Z,3.80
2023-04-30T12:16:53.581Z,4.70
2023-04-30T12:19:26.522Z,4.00
2023-04-30T12:21:57.810Z,2.80
2023-04-30T12:24:28.076Z,3.40
2023-04-30T12:27:02.933Z,4.50
2023-04-30T12:29:32.755Z,1.70
2023-04-30T12:32:03.340Z,3.80
2023-04-30T12:34:33.976Z,3.70
2023-04-30T12:37:04.728Z,4.70
2023-04-30T12:39:36.813Z,3.40
2023-04-30T12:42:08.219Z,3.10
2023-04-30T12:44:46.075Z,2.50
2023-04-30T12:47:16.669Z,3.60
2023-04-30T12:49:49.452Z,3.50
2023-04-30T12:52:18.962Z,4.20
2023-04-30T12:54:48.056Z,2.80
2023-04-30T12:57:17.090Z,2.80
2023-04-30T13:00:00.721Z,3.70
2023-04-30T13:02:32.408Z,3.90
2023-04-30T13:05:01.883Z,3.00
2023-04-30T13:07:41.251Z,2.80
2023-04-30T13:10:11.243Z,2.70
2023-04-30T13:12:41.127Z,3.20
2023-04-30T13:15:11.116Z,4.30
2023-04-30T13:17:40.284Z,2.90
2023-04-30T13:20:10.595Z,3.90
2023-04-30T13:22:39.765Z,2.30
2023-04-30T13:25:09.560Z,2.20
2023-04-30T13:27:38.439Z,2.30
2023-04-30T13:30:09.090Z,2.40
2023-04-30T13:32:37.784Z,3.10
2023-04-30T13:35:08.493Z,3.40
2023-04-30T13:37:36.617Z,2.90
2023-04-30T13:40:09.762Z,4.50
2023-04-30T13:42:39.422Z,2.70
2023-04-30T13:45:08.674Z,2.70
2023-04-30T13:47:36.662Z,3.00
2023-04-30T13:50:06.937Z,2.40
2023-04-30T13:52:35.083Z,1.60
2023-04-30T13:55:05.090Z,2.10
2023-04-30T13:57:33.437Z,1.90
2023-04-30T14:00:02.461Z,2.50
2023-04-30T14:02:36.355Z,2.60
2023-04-30T14:05:06.798Z,3.10
2023-04-30T14:07:35.554Z,2.30
2023-04-30T14:10:04.070Z,2.40
2023-04-30T14:12:32.002Z,2.30
2023-04-30T14:15:00.506Z,3.00
2023-04-30T14:17:29.831Z,2.30
2023-04-30T14:19:58.047Z,2.90
2023-04-30T14:22:26.162Z,2.90
2023-04-30T14:24:54.408Z,2.50
2023-04-30T14:27:22.888Z,3.40
2023-04-30T14:29:51.678Z,2.00
2023-04-30T14:32:19.782Z,3.00
2023-04-30T14:34:47.935Z,2.10
2023-04-30T14:37:17.027Z,2.30
2023-04-30T14:39:46.329Z,2.30
2023-04-30T14:42:15.015Z,2.70
2023-04-30T14:44:43.188Z,2.00
2023-04-30T14:47:11.722Z,3.70
2023-04-30T14:49:39.852Z,2.20
2023-04-30T14:52:07.827Z,1.80
2023-04-30T14:54:36.057Z,2.80
2023-04-30T14:57:04.374Z,2.50
2023-04-30T14:59:33.581Z,1.80
2023-04-30T15:02:01.798Z,3.10
2023-04-30T15:04:30.021Z,2.60
2023-04-30T15:06:57.982Z,1.80
2023-04-30T15:09:25.952Z,1.90
2023-04-30T15:11:54.442Z,2.30
2023-04-30T15:14:22.714Z,1.90
2023-04-30T15:16:51.523Z,2.50
2023-04-30T15:19:19.699Z,2.20
2023-04-30T15:21:49.079Z,2.10
2023-04-30T15:24:18.180Z,2.20
2023-04-30T15:26:46.243Z,2.20
2023-04-30T15:29:14.364Z,3.90
2023-04-30T15:31:42.731Z,2.30
2023-04-30T15:34:10.872Z,3.30
2023-04-30T15:36:39.326Z,2.20
2023-04-30T15:39:07.644Z,2.60
2023-04-30T15:41:36.112Z,2.80
2023-04-30T15:44:04.410Z,3.00
2023-04-30T15:46:33.945Z,2.40
2023-04-30T15:49:02.182Z,2.50
2023-04-30T15:51:30.445Z,2.30
2023-04-30T15:53:58.740Z,2.60
2023-04-30T15:56:26.825Z,3.60
2023-04-30T15:58:56.025Z,1.60
2023-04-30T16:01:24.000Z,2.00
2023-04-30T16:03:52.526Z,2.20
2023-04-30T16:06:21.313Z,1.70
2023-04-30T16:08:50.279Z,2.20
2023-04-30T16:11:19.876Z,2.90
2023-04-30T16:13:47.917Z,1.70
2023-04-30T16:16:16.852Z,2.70
2023-04-30T16:18:45.389Z,2.50
2023-04-30T16:21:13.454Z,2.60
2023-04-30T16:23:41.427Z,2.50
2023-04-30T16:26:10.009Z,2.00
2023-04-30T16:28:37.884Z,2.70
2023-04-30T16:31:06.687Z,1.80
2023-04-30T16:33:35.047Z,2.10
2023-04-30T16:36:03.118Z,2.10
2023-04-30T16:38:31.004Z,2.20
2023-04-30T16:41:00.078Z,2.70
2023-04-30T16:43:28.352Z,2.00
2023-04-30T16:45:56.600Z,4.20
2023-04-30T16:48:24.748Z,2.60
2023-04-30T16:50:52.682Z,3.40
2023-04-30T16:53:22.033Z,2.50
2023-04-30T16:55:52.619Z,2.50
2023-04-30T16:58:20.692Z,4.10
2023-04-30T17:00:55.929Z,2.30
2023-04-30T17:03:24.837Z,2.80
2023-04-30T17:05:53.810Z,3.40
2023-04-30T17:08:21.789Z,1.80
2023-04-30T17:10:49.734Z,1.80
2023-04-30T17:13:18.652Z,2.20
2023-04-30T17:15:46.611Z,2.40
2023-04-30T17:18:15.559Z,3.00
2023-04-30T17:20:45.736Z,2.30
2023-04-30T17:23:13.987Z,2.60
2023-04-30T17:25:43.187Z,1.20
2023-04-30T17:28:11.117Z,1.70
2023-04-30T17:30:39.637Z,2.50
2023-04-30T17:33:07.926Z,1.50
2023-04-30T17:35:36.439Z,2.20
2023-04-30T17:38:04.477Z,1.70
2023-04-30T17:40:33.175Z,3.00
2023-04-30T17:43:01.646Z,2.00
2023-04-30T17:45:29.603Z,2.20
2023-04-30T17:47:57.620Z,2.80
2023-04-30T17:50:26.264Z,1.70
2023-04-30T17:52:54.391Z,2.90
2023-04-30T17:55:22.858Z,3.50
2023-04-30T17:57:50.888Z,3.00
2023-04-30T18:00:18.982Z,3.00
2023-04-30T18:02:47.222Z,3.00
2023-04-30T18:05:15.480Z,2.40
2023-04-30T18:07:43.690Z,2.80
2023-04-30T18:10:11.762Z,2.00
2023-04-30T18:12:39.861Z,2.70
2023-04-30T18:15:13.232Z,2.50
2023-04-30T18:17:42.559Z,2.70
2023-04-30T18:20:15.001Z,2.60
2023-04-30T18:22:43.698Z,1.70
2023-04-30T18:25:14.031Z,3.40
2023-04-30T18:27:42.093Z,2.50
2023-04-30T18:30:11.935Z,2.10
2023-04-30T18:32:41.948Z,1.50
2023-04-30T18:35:10.935Z,1.80
2023-04-30T18:37:38.888Z,2.60
2023-04-30T18:40:07.992Z,2.70
2023-04-30T18:42:37.769Z,1.50
2023-04-30T18:45:07.095Z,2.30
2023-04-30T18:47:35.073Z,2.80
2023-04-30T18:50:03.237Z,2.30
2023-04-30T18:52:31.514Z,1.60
2023-04-30T18:54:59.995Z,2.90
2023-04-30T18:57:28.560Z,1.90
2023-04-30T18:59:57.085Z,2.70
2023-04-30T19:02:25.608Z,2.30
2023-04-30T19:04:54.686Z,3.20
2023-04-30T19:07:22.917Z,3.00
2023-04-30T19:09:52.057Z,2.10
2023-04-30T19:12:20.001Z,2.80
2023-04-30T19:14:48.040Z,3.70
2023-04-30T19:17:20.215Z,3.00
2023-04-30T19:19:50.442Z,5.10
2023-04-30T19:22:18.838Z,5.60
2023-04-30T19:24:46.870Z,3.10
2023-04-30T19:27:15.733Z,3.30
2023-04-30T19:29:46.420Z,4.60
2023-04-30T19:32:14.825Z,3.70
2023-04-30T19:34:43.792Z,4.30
2023-04-30T19:37:11.974Z,4.50
2023-04-30T19:39:40.549Z,4.50
2023-04-30T19:42:08.933Z,3.30
2023-04-30T19:44:37.205Z,3.30
2023-04-30T19:47:05.382Z,3.70
2023-04-30T19:49:34.685Z,3.80
2023-04-30T19:52:02.784Z,4.30
2023-04-30T19:54:30.866Z,2.80
2023-04-30T19:56:59.303Z,3.50
2023-04-30T19:59:27.895Z,3.10
2023-04-30T20:01:56.335Z,3.80
2023-04-30T20:04:26.638Z,3.50
2023-04-30T20:06:57.556Z,3.50
2023-04-30T20:09:26.044Z,3.00
2023-04-30T20:11:55.551Z,3.10
2023-04-30T20:14:24.105Z,3.10
2023-04-30T20:16:56.680Z,2.90
2023-04-30T20:19:25.623Z,3.80
2023-04-30T20:21:54.871Z,2.40
2023-04-30T20:24:23.575Z,2.90
2023-04-30T20:26:51.711Z,3.00
2023-04-30T20:29:20.826Z,2.40
2023-04-30T20:31:49.324Z,3.40
2023-04-30T20:34:17.718Z,4.60
2023-04-30T20:36:45.890Z,4.70
2023-04-30T20:39:14.862Z,2.80
2023-04-30T20:41:43.705Z,3.60
2023-04-30T20:44:11.719Z,5.20
2023-04-30T20:46:39.720Z,3.30
2023-04-30T20:49:11.655Z,5.00
2023-04-30T20:51:40.344Z,3.20
2023-04-30T20:54:09.586Z,3.50
2023-04-30T20:56:37.647Z,4.80
2023-04-30T20:59:06.104Z,3.20
2023-04-30T21:01:34.477Z,4.70
2023-04-30T21:04:02.650Z,4.30
2023-04-30T21:06:34.744Z,4.70
2023-04-30T21:09:03.017Z,3.30
2023-04-30T21:11:30.963Z,3.00
2023-04-30T21:13:59.767Z,3.70
2023-04-30T21:16:28.512Z,3.60
2023-04-30T21:18:56.914Z,3.50
2023-04-30T21:21:24.810Z,3.60
2023-04-30T21:23:53.176Z,4.00
2023-04-30T21:26:21.910Z,4.10
2023-04-30T21:28:52.682Z,4.40
2023-04-30T21:31:20.851Z,4.00
2023-04-30T21:33:48.839Z,2.70
2023-04-30T21:36:17.213Z,4.50
2023-04-30T21:38:45.492Z,4.50
2023-04-30T21:41:18.551Z,3.20
2023-04-30T21:43:46.545Z,3.40
2023-04-30T21:46:15.103Z,4.10
2023-04-30T21:48:43.932Z,3.80
2023-04-30T21:51:15.275Z,3.70
2023-04-30T21:53:45.759Z,3.80
2023-04-30T21:56:14.919Z,3.50
2023-04-30T21:58:43.370Z,3.70
2023-04-30T22:01:11.985Z,3.60
2023-04-30T22:03:43.097Z,3.70
2023-04-30T22:06:12.826Z,3.40
2023-04-30T22:08:40.872Z,3.10
2023-04-30T22:11:09.691Z,5.20
2023-04-30T22:13:37.941Z,5.20
2023-04-30T22:16:07.326Z,3.70
2023-04-30T22:18:35.719Z,3.30
2023-04-30T22:21:03.775Z,3.60
2023-04-30T22:23:31.864Z,5.00
2023-04-30T22:26:01.316Z,4.40
2023-04-30T22:28:29.456Z,3.10
2023-04-30T22:30:59.814Z,4.10
2023-04-30T22:33:28.153Z,4.30
2023-04-30T22:35:56.424Z,3.30
2023-04-30T22:38:24.613Z,3.60
2023-04-30T22:40:53.084Z,3.90
2023-04-30T22:43:21.253Z,6.20
2023-04-30T22:45:50.047Z,4.40
2023-04-30T22:48:18.763Z,3.30
2023-04-30T22:50:47.414Z,3.60
2023-04-30T22:53:15.615Z,5.20
2023-04-30T22:55:44.381Z,4.20
2023-04-30T22:58:13.094Z,3.20
2023-04-30T23:00:41.362Z,4.70
2023-04-30T23:03:09.446Z,3.80
2023-04-30T23:05:38.446Z,3.10
2023-04-30T23:08:08.738Z,2.90
2023-04-30T23:10:37.626Z,3.30
2023-04-30T23:13:08.265Z,4.60
2023-04-30T23:15:37.251Z,6.10
2023-04-30T23:18:06.725Z,3.50
2023-04-30T23:20:34.939Z,3.90
2023-04-30T23:23:03.006Z,4.80
2023-04-30T23:25:32.527Z,2.80
2023-04-30T23:28:01.404Z,4.10
2023-04-30T23:30:29.397Z,3.40
2023-04-30T23:32:57.367Z,4.20
2023-04-30T23:35:26.248Z,4.00
2023-04-30T23:37:54.202Z,3.20
2023-04-30T23:40:22.472Z,3.90
2023-04-30T23:42:50.781Z,3.00
2023-04-30T23:45:21.286Z,4.10
2023-04-30T23:47:49.463Z,2.80
2023-04-30T23:50:17.953Z,3.70
2023-04-30T23:52:45.907Z,5.60
2023-04-30T23:55:14.710Z,3.40
2023-04-30T23:57:43.731Z,3.00
